createdAt,value
2022-10-25T01:12:54.836Z,14.20
2022-10-25T01:15:24.865Z,14.20
2022-10-25T01:18:01.010Z,14.20
2022-10-25T01:20:46.759Z,14.20
2022-10-25T01:23:28.322Z,14.20
2022-10-25T01:26:08.238Z,14.20
2022-10-25T01:28:42.608Z,14.20
2022-10-25T01:31:20.112Z,14.20
2022-10-25T01:33:50.092Z,14.20
2022-10-25T01:36:21.702Z,14.30
2022-10-25T01:38:51.701Z,14.30
2022-10-25T02:37:20.908Z,14.10
2022-10-25T02:39:50.151Z,14.00
2022-10-25T02:42:18.177Z,14.00
2022-10-25T02:44:46.375Z,14.00
2022-10-25T02:47:14.284Z,14.00
2022-10-25T02:49:42.458Z,14.00
2022-10-25T02:52:10.705Z,14.00
2022-10-25T02:54:40.008Z,14.00
2022-10-25T02:57:08.009Z,14.00
2022-10-25T02:59:36.147Z,14.00
2022-10-25T03:02:04.111Z,14.00
2022-10-25T03:04:32.012Z,13.90
2022-10-25T03:07:00.078Z,13.90
2022-10-25T03:09:28.094Z,13.90
2022-10-25T03:11:57.615Z,13.90
2022-10-25T03:14:25.851Z,13.90
2022-10-25T03:16:54.037Z,13.90
2022-10-25T03:19:22.108Z,13.90
2022-10-25T03:21:50.517Z,13.80
2022-10-25T03:24:18.756Z,13.80
2022-10-25T03:26:46.742Z,13.80
2022-10-25T03:29:16.347Z,13.70
2022-10-25T03:31:44.527Z,13.70
2022-10-25T03:34:12.699Z,13.70
2022-10-25T03:36:40.813Z,13.70
2022-10-25T03:39:08.961Z,13.70
2022-10-25T03:41:36.945Z,13.70
2022-10-25T03:44:05.124Z,13.60
2022-10-25T03:46:34.598Z,13.60
2022-10-25T03:49:02.612Z,13.70
2022-10-25T03:51:30.829Z,13.70
2022-10-25T03:53:58.702Z,13.60
2022-10-25T03:56:26.639Z,13.60
2022-10-25T03:58:54.986Z,13.60
2022-10-25T04:01:23.115Z,13.60
2022-10-25T04:03:52.544Z,13.60
2022-10-25T04:06:20.607Z,13.60
2022-10-25T04:08:48.680Z,13.60
2022-10-25T04:11:16.769Z,13.60
2022-10-25T04:13:44.807Z,13.60
2022-10-25T04:16:14.775Z,13.60
2022-10-25T04:18:46.278Z,13.50
2022-10-25T04:21:15.896Z,13.50
2022-10-25T04:23:43.883Z,13.50
2022-10-25T04:26:14.476Z,13.50
2022-10-25T04:28:42.632Z,13.50
2022-10-25T04:31:10.632Z,13.50
2022-10-25T04:53:45.540Z,13.40
2022-10-25T04:56:17.858Z,13.40
2022-10-25T04:59:03.310Z,13.40
2022-10-25T05:01:39.143Z,13.40
2022-10-25T05:50:03.011Z,13.50
2022-10-25T05:52:31.176Z,13.40
2022-10-25T05:54:59.370Z,13.50
2022-10-25T05:57:27.615Z,13.50
2022-10-25T05:59:56.946Z,13.50
2022-10-25T06:02:25.298Z,13.50
2022-10-25T06:04:54.470Z,13.50
2022-10-25T06:07:23.808Z,13.60
2022-10-25T06:09:52.480Z,13.60
2022-10-25T06:15:02.499Z,13.60
2022-10-25T06:17:30.429Z,13.60
2022-10-25T06:19:58.355Z,13.60
2022-10-25T06:22:27.776Z,13.60
2022-10-25T06:24:55.672Z,13.60
2022-10-25T06:27:23.546Z,13.60
2022-10-25T06:29:51.505Z,13.50
2022-10-25T06:32:19.426Z,13.60
2022-10-25T06:34:47.397Z,13.60
2022-10-25T06:37:15.678Z,13.60
2022-10-25T06:39:44.955Z,13.60
2022-10-25T06:42:12.938Z,13.60
2022-10-25T06:44:40.822Z,13.60
2022-10-25T06:47:17.515Z,13.60
2022-10-25T06:49:47.164Z,13.60
2022-10-25T06:52:15.112Z,13.60
2022-10-25T06:54:42.996Z,13.60
2022-10-25T06:57:12.861Z,13.70
2022-10-25T06:59:41.013Z,13.70
2022-10-25T07:02:10.917Z,13.70
2022-10-25T07:04:39.424Z,13.70
2022-10-25T07:07:07.724Z,13.70
2022-10-25T07:09:35.864Z,13.70
2022-10-25T07:12:06.516Z,13.70
2022-10-25T07:14:38.461Z,13.70
2022-10-25T07:17:06.871Z,13.90
2022-10-25T07:19:35.000Z,13.90
2022-10-25T07:22:03.164Z,14.00
2022-10-25T07:24:31.714Z,14.00
2022-10-25T07:26:59.815Z,14.10
2022-10-25T07:29:28.364Z,14.10
2022-10-25T07:31:57.956Z,14.10
2022-10-25T07:34:26.661Z,14.10
2022-10-25T07:36:55.031Z,14.20
2022-10-25T07:39:23.631Z,14.20
2022-10-25T07:41:51.853Z,14.20
2022-10-25T07:44:24.800Z,14.20
2022-10-25T07:46:54.086Z,14.30
2022-10-25T07:49:23.347Z,14.30
2022-10-25T07:51:51.357Z,14.40
2022-10-25T07:54:19.511Z,14.40
2022-10-25T07:56:47.643Z,14.40
2022-10-25T07:59:15.679Z,14.40
2022-10-25T08:01:44.192Z,14.50
2022-10-25T08:04:12.951Z,14.50
2022-10-25T08:06:43.036Z,14.50
2022-10-25T08:09:14.797Z,14.50
2022-10-25T08:11:49.067Z,14.50
2022-10-25T08:14:18.911Z,14.50
2022-10-25T08:16:47.148Z,14.60
2022-10-25T08:19:15.204Z,14.70
2022-10-25T09:29:26.966Z,15.70
2022-10-25T09:32:10.074Z,15.80
2022-10-25T15:06:53.337Z,17.00
2022-10-25T15:09:43.239Z,16.90
2022-10-25T15:12:24.453Z,16.80
2022-10-25T15:14:56.618Z,16.70
2022-10-25T15:17:29.803Z,16.70
2022-10-25T15:20:01.214Z,16.60
2022-10-25T15:22:32.880Z,16.60
2022-10-25T15:25:01.808Z,16.50
2022-10-25T15:27:36.699Z,16.50
2022-10-25T15:30:06.056Z,16.50
2022-10-25T15:32:35.047Z,16.40
2022-10-25T15:35:03.927Z,16.40
2022-10-25T15:40:21.005Z,16.30
2022-10-25T15:42:49.199Z,16.20
2022-10-25T15:45:17.632Z,16.20
2022-10-25T15:47:47.652Z,16.10
2022-10-25T15:50:18.996Z,16.00
2022-10-25T15:52:49.023Z,16.00
2022-10-25T15:55:22.079Z,15.90
2022-10-25T15:57:50.646Z,15.90
2022-10-25T16:00:22.837Z,16.00
2022-10-25T16:02:54.112Z,15.90
2022-10-25T16:05:23.597Z,15.80
2022-10-25T16:07:53.145Z,15.80
2022-10-25T16:10:22.002Z,15.80
2022-10-25T16:12:54.598Z,15.70
2022-10-25T17:25:03.393Z,14.20
2022-10-25T17:27:31.849Z,14.20
2022-10-25T18:06:13.756Z,13.50
2022-10-25T18:08:41.825Z,13.50
2022-10-25T18:11:10.580Z,13.50
2022-10-25T18:13:53.612Z,13.50
2022-10-25T19:54:26.818Z,12.20
2022-10-25T19:56:55.422Z,12.20
2022-10-25T19:59:23.515Z,12.20
2022-10-25T20:02:06.604Z,12.20
2022-10-25T20:55:39.261Z,12.00
2022-10-25T22:51:52.410Z,11.80
2022-10-25T22:54:20.534Z,11.90
